createdAt,value
2018-11-21T00:00:20.069Z,78.71
2018-11-21T00:02:49.945Z,77.53
2018-11-21T00:05:18.954Z,77.10
2018-11-21T00:07:49.176Z,76.88
2018-11-21T00:10:18.215Z,77.69
2018-11-21T00:12:49.645Z,77.52
2018-11-21T00:15:18.690Z,77.78
2018-11-21T00:17:47.794Z,76.53
2018-11-21T00:20:16.832Z,78.62
2018-11-21T00:22:45.935Z,78.00
2018-11-21T00:25:14.891Z,77.31
2018-11-21T00:27:43.930Z,77.11
2018-11-21T00:30:17.189Z,77.32
2018-11-21T00:32:46.231Z,78.81
2018-11-21T00:35:15.252Z,77.85
2018-11-21T00:37:44.297Z,79.24
2018-11-21T00:40:14.625Z,77.72
2018-11-21T00:42:46.857Z,78.47
2018-11-21T00:45:12.704Z,76.98
2018-11-21T00:47:41.741Z,78.16
2018-11-21T00:50:11.261Z,78.06
2018-11-21T00:52:39.904Z,77.69
2018-11-21T00:55:09.024Z,77.50
2018-11-21T00:57:40.502Z,78.31
2018-11-21T01:00:10.680Z,77.81
2018-11-21T01:02:39.717Z,77.06
2018-11-21T01:05:08.757Z,77.82
2018-11-21T01:07:37.839Z,78.32
2018-11-21T01:10:06.898Z,77.87
2018-11-21T01:12:35.939Z,79.17
2018-11-21T01:15:05.085Z,78.38
2018-11-21T01:17:34.147Z,77.73
2018-11-21T01:20:03.205Z,77.96
2018-11-21T01:22:32.461Z,78.08
2018-11-21T01:25:01.447Z,77.02
2018-11-21T01:27:30.514Z,78.91
2018-11-21T01:29:59.582Z,78.23
2018-11-21T01:32:28.603Z,77.27
2018-11-21T01:34:57.665Z,77.14
2018-11-21T01:37:26.778Z,77.53
2018-11-21T01:39:55.841Z,77.54
2018-11-21T01:42:24.865Z,80.07
2018-11-21T01:44:53.932Z,78.80
2018-11-21T01:47:22.981Z,78.42
2018-11-21T01:49:52.002Z,77.65
2018-11-21T01:52:21.309Z,78.41
2018-11-21T01:54:50.373Z,78.85
2018-11-21T01:57:20.911Z,78.53
2018-11-21T01:59:50.082Z,77.90
2018-11-21T02:02:19.174Z,78.27
2018-11-21T02:04:48.227Z,77.61
2018-11-21T02:07:17.256Z,78.01
2018-11-21T02:09:46.272Z,78.70
2018-11-21T02:12:15.367Z,78.56
2018-11-21T02:14:44.437Z,78.98
2018-11-21T02:17:13.568Z,79.02
2018-11-21T02:19:42.510Z,78.13
2018-11-21T02:22:11.668Z,77.78
2018-11-21T02:24:41.803Z,77.75
2018-11-21T02:27:10.875Z,77.80
2018-11-21T02:29:39.920Z,78.41
2018-11-21T02:32:09.002Z,77.93
2018-11-21T02:34:38.068Z,77.83
2018-11-21T02:37:07.129Z,77.37
2018-11-21T02:39:36.154Z,77.70
2018-11-21T02:42:05.186Z,77.10
2018-11-21T02:44:34.374Z,77.87
2018-11-21T02:47:03.365Z,77.21
2018-11-21T02:49:32.396Z,78.45
2018-11-21T02:52:01.437Z,78.00
2018-11-21T02:54:30.574Z,77.66
2018-11-21T02:57:22.587Z,77.76
2018-11-21T02:59:53.739Z,77.50
2018-11-21T03:02:22.791Z,78.01
2018-11-21T03:04:51.843Z,77.97
2018-11-21T03:07:21.228Z,78.12
2018-11-21T03:09:50.293Z,77.59
2018-11-21T03:12:19.385Z,78.09
2018-11-21T03:14:48.486Z,78.14
2018-11-21T03:17:17.531Z,77.83
2018-11-21T03:19:47.650Z,77.58
2018-11-21T03:22:16.744Z,78.26
2018-11-21T03:24:45.828Z,78.99
2018-11-21T03:27:14.885Z,77.69
2018-11-21T03:29:43.920Z,78.98
2018-11-21T03:32:12.943Z,78.89
2018-11-21T03:34:42.019Z,78.06
2018-11-21T03:37:11.089Z,78.36
2018-11-21T03:39:42.407Z,78.38
2018-11-21T03:42:11.333Z,78.36
2018-11-21T03:44:40.390Z,77.93
2018-11-21T03:47:09.454Z,77.78
2018-11-21T03:49:38.474Z,77.56
2018-11-21T03:52:07.502Z,77.65
2018-11-21T03:54:36.554Z,78.03
2018-11-21T03:57:05.661Z,78.27
2018-11-21T03:59:34.777Z,78.58
2018-11-21T04:02:03.898Z,78.16
2018-11-21T04:04:32.867Z,78.62
2018-11-21T04:07:01.942Z,78.87
2018-11-21T04:09:32.046Z,78.23
2018-11-21T04:12:01.106Z,77.57
2018-11-21T04:14:30.188Z,77.73
2018-11-21T04:16:59.205Z,77.78
2018-11-21T04:19:29.369Z,77.37
2018-11-21T04:21:58.517Z,77.42
2018-11-21T04:24:27.493Z,78.30
2018-11-21T04:26:56.517Z,77.97
2018-11-21T04:29:25.572Z,77.93
2018-11-21T04:31:54.615Z,77.71
2018-11-21T04:34:23.630Z,78.16
2018-11-21T04:36:52.637Z,77.85
2018-11-21T04:39:21.710Z,78.08
2018-11-21T04:41:50.768Z,78.13
2018-11-21T04:44:19.794Z,77.97
2018-11-21T04:46:48.818Z,78.37
2018-11-21T04:49:17.886Z,77.73
2018-11-21T04:51:46.967Z,77.96
2018-11-21T04:54:16.014Z,77.64
2018-11-21T04:56:45.057Z,78.03
2018-11-21T04:59:14.460Z,77.53
2018-11-21T05:01:43.522Z,78.72
2018-11-21T05:04:12.605Z,77.96
2018-11-21T05:06:41.673Z,78.27
2018-11-21T05:09:11.764Z,78.28
2018-11-21T05:11:40.827Z,78.06
2018-11-21T05:14:09.910Z,77.42
2018-11-21T05:16:38.943Z,78.55
2018-11-21T05:19:08.037Z,78.04
2018-11-21T05:21:37.098Z,77.58
2018-11-21T05:24:06.117Z,77.55
2018-11-21T05:26:35.148Z,78.18
2018-11-21T05:29:04.210Z,79.18
2018-11-21T05:31:33.280Z,77.90
2018-11-21T05:34:02.303Z,78.32
2018-11-21T05:36:31.397Z,78.96
2018-11-21T05:39:00.389Z,78.65
2018-11-21T05:41:29.451Z,78.37
2018-11-21T05:43:58.466Z,78.88
2018-11-21T05:46:27.766Z,77.92
2018-11-21T05:48:56.780Z,78.90
2018-11-21T05:51:25.885Z,79.01
2018-11-21T05:53:54.937Z,77.71
2018-11-21T05:56:24.001Z,78.36
2018-11-21T05:58:52.985Z,77.94
2018-11-21T06:01:22.079Z,78.06
2018-11-21T06:03:51.149Z,77.75
2018-11-21T06:06:20.509Z,77.50
2018-11-21T06:08:49.648Z,77.58
2018-11-21T06:11:18.714Z,77.56
2018-11-21T06:13:47.780Z,77.96
2018-11-21T06:16:16.811Z,77.35
2018-11-21T06:18:45.916Z,77.62
2018-11-21T06:21:14.977Z,77.60
2018-11-21T06:23:44.079Z,77.31
2018-11-21T06:26:13.136Z,77.43
2018-11-21T06:28:42.263Z,77.33
2018-11-21T06:31:11.251Z,77.69
2018-11-21T06:33:40.303Z,77.51
2018-11-21T06:36:09.475Z,77.36
2018-11-21T06:38:38.505Z,76.97
2018-11-21T06:41:07.550Z,77.25
2018-11-21T06:43:36.626Z,77.80
2018-11-21T06:46:05.816Z,77.73
2018-11-21T06:48:34.907Z,78.32
2018-11-21T06:51:03.953Z,78.17
2018-11-21T06:53:32.979Z,77.60
2018-11-21T06:56:02.011Z,77.83
2018-11-21T06:58:31.076Z,78.41
2018-11-21T07:01:00.155Z,77.94
2018-11-21T07:03:29.587Z,77.41
2018-11-21T07:05:58.655Z,77.17
2018-11-21T07:08:27.738Z,77.34
2018-11-21T07:10:56.801Z,77.52
2018-11-21T07:13:25.861Z,77.42
2018-11-21T07:15:54.919Z,77.90
2018-11-21T07:18:24.033Z,77.32
2018-11-21T07:20:53.119Z,78.84
2018-11-21T07:23:22.224Z,77.99
2018-11-21T07:25:51.250Z,77.81
2018-11-21T07:28:20.304Z,78.23
2018-11-21T07:30:49.340Z,77.71
2018-11-21T07:33:18.667Z,77.27
2018-11-21T07:35:47.713Z,77.20
2018-11-21T07:38:16.742Z,77.55
2018-11-21T07:40:45.817Z,78.05
2018-11-21T07:43:14.899Z,78.95
2018-11-21T07:45:43.939Z,77.67
2018-11-21T07:48:12.998Z,77.33
2018-11-21T07:50:43.403Z,77.99
2018-11-21T07:53:12.557Z,78.06
2018-11-21T07:55:41.513Z,77.67
2018-11-21T07:58:12.816Z,78.07
2018-11-21T08:00:54.483Z,78.05
2018-11-21T08:03:24.601Z,77.93
2018-11-21T08:06:12.790Z,78.04
2018-11-21T08:09:00.044Z,78.25
2018-11-21T08:11:51.243Z,77.45
2018-11-21T08:14:34.587Z,77.83
2018-11-21T08:17:22.100Z,78.04
2018-11-21T08:20:28.663Z,77.79
2018-11-21T08:23:03.963Z,77.51
2018-11-21T08:25:54.776Z,77.36
2018-11-21T08:28:32.773Z,77.07
2018-11-21T08:31:01.846Z,77.33
2018-11-21T08:33:34.034Z,77.64
2018-11-21T08:36:01.084Z,78.29
2018-11-21T08:38:30.085Z,78.25
2018-11-21T08:40:59.110Z,78.04
2018-11-21T08:43:28.192Z,77.66
2018-11-21T08:45:57.261Z,77.72
2018-11-21T08:48:26.428Z,77.66
2018-11-21T08:50:55.777Z,77.69
2018-11-21T08:53:24.956Z,77.62
2018-11-21T08:55:53.924Z,77.48
2018-11-21T08:58:22.922Z,77.69
2018-11-21T09:00:52.018Z,77.56
2018-11-21T09:03:21.145Z,77.23
2018-11-21T09:05:50.167Z,77.54
2018-11-21T09:08:19.235Z,77.70
2018-11-21T09:10:57.533Z,77.22
2018-11-21T09:13:26.630Z,77.33
2018-11-21T09:15:55.685Z,77.82
2018-11-21T09:18:25.797Z,77.52
2018-11-21T09:20:54.953Z,77.78
2018-11-21T09:23:23.949Z,77.58
2018-11-21T09:25:53.024Z,77.39
2018-11-21T09:28:22.082Z,77.48
2018-11-21T09:30:51.131Z,77.47
2018-11-21T09:33:20.188Z,77.41
2018-11-21T09:35:49.671Z,77.21
2018-11-21T09:38:18.759Z,77.33
2018-11-21T09:40:47.791Z,77.27
2018-11-21T09:43:16.842Z,77.12
2018-11-21T09:45:48.338Z,76.84
2018-11-21T09:48:19.492Z,76.90
2018-11-21T09:50:48.558Z,75.97
2018-11-21T09:53:18.625Z,76.87
2018-11-21T09:55:48.306Z,76.97
2018-11-21T09:58:16.787Z,77.00
2018-11-21T10:01:22.263Z,76.81
2018-11-21T10:03:51.345Z,75.65
2018-11-21T10:06:28.232Z,76.61
2018-11-21T10:09:07.948Z,76.29
2018-11-21T10:11:37.753Z,76.48
2018-11-21T10:14:07.383Z,75.75
2018-11-21T10:16:36.454Z,76.63
2018-11-21T10:19:05.903Z,75.67
2018-11-21T10:21:35.978Z,75.23
2018-11-21T10:24:05.081Z,76.11
2018-11-21T10:26:34.147Z,74.10
2018-11-21T10:29:03.285Z,76.20
2018-11-21T10:31:32.255Z,75.35
2018-11-21T10:34:01.396Z,75.17
2018-11-21T10:36:30.365Z,75.32
2018-11-21T10:38:59.528Z,75.79
2018-11-21T10:41:28.522Z,75.45
2018-11-21T10:43:57.566Z,74.41
2018-11-21T10:46:26.621Z,75.50
2018-11-21T10:48:55.687Z,75.31
2018-11-21T10:51:24.739Z,74.43
2018-11-21T10:53:53.766Z,75.78
2018-11-21T10:56:22.797Z,75.52
2018-11-21T10:58:51.989Z,75.55
2018-11-21T11:01:27.448Z,75.40
2018-11-21T11:03:59.234Z,74.68
2018-11-21T11:06:46.062Z,75.30
2018-11-21T11:09:33.862Z,75.40
2018-11-21T11:12:34.296Z,73.82
2018-11-21T11:15:37.405Z,74.93
2018-11-21T11:18:24.319Z,75.24
2018-11-21T11:21:11.745Z,74.45
2018-11-21T11:23:58.854Z,75.08
2018-11-21T11:26:46.986Z,74.46
2018-11-21T11:29:33.601Z,73.63
2018-11-21T11:32:09.327Z,74.30
2018-11-21T11:35:03.404Z,74.62
2018-11-21T11:37:50.460Z,74.91
2018-11-21T11:40:37.534Z,74.44
2018-11-21T11:43:37.900Z,74.66
2018-11-21T11:46:25.004Z,74.43
2018-11-21T11:49:18.901Z,74.67
2018-11-21T11:51:56.799Z,72.74
2018-11-21T11:54:53.858Z,74.44
2018-11-21T11:57:44.701Z,73.78
2018-11-21T12:00:35.748Z,74.70
2018-11-21T12:03:33.120Z,74.51
2018-11-21T12:06:24.174Z,74.39
2018-11-21T12:09:10.940Z,73.75
2018-11-21T12:11:57.941Z,73.96
2018-11-21T12:14:34.640Z,73.19
2018-11-21T12:17:27.934Z,72.89
2018-11-21T12:20:14.775Z,73.48
2018-11-21T12:23:15.816Z,73.92
2018-11-21T12:26:10.334Z,73.21
2018-11-21T12:28:54.430Z,72.88
2018-11-21T12:31:29.643Z,73.04
2018-11-21T12:34:17.847Z,73.10
2018-11-21T12:37:10.977Z,73.69
2018-11-21T12:40:01.881Z,72.94
2018-11-21T12:42:53.197Z,73.37
2018-11-21T12:45:44.314Z,73.59
2018-11-21T12:48:35.222Z,73.80
2018-11-21T12:51:33.298Z,73.73
2018-11-21T12:54:29.416Z,72.57
2018-11-21T12:57:11.914Z,73.52
2018-11-21T13:00:02.096Z,73.29
2018-11-21T13:02:40.058Z,73.61
2018-11-21T13:05:36.345Z,72.46
2018-11-21T13:08:23.305Z,71.33
2018-11-21T13:11:19.440Z,70.65
2018-11-21T13:14:22.567Z,72.95
